Time;durP1;ratioP1;P1;durP2;ratioP2;P2;SDS_P1;SDS_P2;PMS_P1;PMS_P2;Temp;Humidity;BMP_temperature;BMP_pressure;BME280_temperature;BME280_humidity;BME280_pressure;Samples;Min_cycle;Max_cycle;Signal;HPM_P1;HPM_P2
2021/12/11 00:00:33;;;;;;;12.27;8.40;;;;;;;;;;5021537;28;20217;-78
2021/12/11 00:02:59;;;;;;;14.93;9.13;;;;;;;;;;5037674;28;20208;-78
2021/12/11 00:05:26;;;;;;;13.77;8.83;;;;;;;;;;5037385;28;20216;-78
2021/12/11 00:07:53;;;;;;;14.20;8.90;;;;;;;;;;5037423;28;20246;-79
2021/12/11 00:10:25;;;;;;;10.23;7.20;;;;;;;;;;5037163;28;20269;-78
2021/12/11 00:12:53;;;;;;;12.07;7.13;;;;;;;;;;5037502;28;20178;-78
2021/12/11 00:15:23;;;;;;;9.57;6.87;;;;;;;;;;5020214;28;20182;-78
2021/12/11 00:17:49;;;;;;;10.03;6.93;;;;;;;;;;5037517;28;20181;-78
2021/12/11 00:20:22;;;;;;;9.70;7.00;;;;;;;;;;5037452;28;20193;-78
2021/12/11 00:22:48;;;;;;;10.90;7.17;;;;;;;;;;5037231;28;20182;-79
2021/12/11 00:25:15;;;;;;;10.60;7.53;;;;;;;;;;5020646;28;20212;-78
2021/12/11 00:27:43;;;;;;;11.33;7.03;;;;;;;;;;5021027;28;20202;-79
2021/12/11 00:30:10;;;;;;;10.80;6.90;;;;;;;;;;5037293;28;20232;-78
2021/12/11 00:32:37;;;;;;;11.53;7.43;;;;;;;;;;5036755;28;20185;-78
2021/12/11 00:35:09;;;;;;;9.87;7.17;;;;;;;;;;5036866;28;20171;-78
2021/12/11 00:37:35;;;;;;;12.40;8.30;;;;;;;;;;5020771;28;20185;-78
2021/12/11 00:40:16;;;;;;;10.30;7.93;;;;;;;;;;5037344;28;20268;-78
2021/12/11 00:42:48;;;;;;;14.90;8.40;;;;;;;;;;5036763;28;20211;-79
2021/12/11 00:45:16;;;;;;;12.67;8.27;;;;;;;;;;5080530;22;20234;-79
2021/12/11 00:47:45;;;;;;;12.10;7.70;;;;;;;;;;5056135;28;20288;-79
2021/12/11 00:50:13;;;;;;;12.20;7.77;;;;;;;;;;5056653;28;20180;-79
2021/12/11 00:52:47;;;;;;;11.73;8.10;;;;;;;;;;5039599;28;20177;-78
2021/12/11 00:55:21;;;;;;;13.47;8.20;;;;;;;;;;5039447;28;20208;-79
2021/12/11 00:57:48;;;;;;;14.00;8.50;;;;;;;;;;5039338;28;20172;-79
2021/12/11 01:00:18;;;;;;;11.87;8.10;;;;;;;;;;5039617;28;20184;-79
2021/12/11 01:02:45;;;;;;;13.83;8.27;;;;;;;;;;5056015;28;20174;-79
2021/12/11 01:05:11;;;;;;;12.50;8.00;;;;;;;;;;5039539;28;20321;-79
2021/12/11 01:07:37;;;;;;;13.17;8.23;;;;;;;;;;5039431;28;20295;-79
2021/12/11 01:10:06;;;;;;;15.03;8.50;;;;;;;;;;5055920;28;20180;-79
2021/12/11 01:12:44;;;;;;;12.77;7.90;;;;;;;;;;5055583;28;20204;-79
2021/12/11 01:15:13;;;;;;;12.83;8.00;;;;;;;;;;5040383;28;20201;-79
2021/12/11 01:17:47;;;;;;;12.27;7.90;;;;;;;;;;5055674;28;20206;-79
2021/12/11 01:20:20;;;;;;;10.90;7.80;;;;;;;;;;5056062;28;20655;-79
2021/12/11 01:22:46;;;;;;;10.87;7.60;;;;;;;;;;5055582;28;20181;-79
2021/12/11 01:25:23;;;;;;;11.83;8.27;;;;;;;;;;5055387;28;20256;-79
2021/12/11 01:28:02;;;;;;;13.00;9.07;;;;;;;;;;5055029;28;20239;-79
2021/12/11 01:30:33;;;;;;;11.20;7.60;;;;;;;;;;5038797;28;20173;-79
2021/12/11 01:33:00;;;;;;;11.00;7.80;;;;;;;;;;5055731;28;20168;-79
2021/12/11 01:35:26;;;;;;;14.13;8.73;;;;;;;;;;5039012;28;20198;-79
2021/12/11 01:38:00;;;;;;;12.40;8.13;;;;;;;;;;5038974;28;20186;-79
2021/12/11 01:40:30;;;;;;;11.87;8.23;;;;;;;;;;5055481;28;20181;-79
2021/12/11 01:42:57;;;;;;;12.27;8.57;;;;;;;;;;5055431;28;20177;-79
2021/12/11 01:45:23;;;;;;;12.47;7.87;;;;;;;;;;5038704;28;20262;-79
2021/12/11 01:47:49;;;;;;;13.77;8.90;;;;;;;;;;5038519;28;20572;-79
2021/12/11 01:50:27;;;;;;;13.23;8.27;;;;;;;;;;5055270;28;20173;-79
2021/12/11 01:53:05;;;;;;;13.07;8.73;;;;;;;;;;5055306;28;20286;-79
2021/12/11 01:55:45;;;;;;;12.73;8.53;;;;;;;;;;5055182;28;20169;-79
2021/12/11 01:58:12;;;;;;;14.10;9.10;;;;;;;;;;5055110;28;20177;-79
2021/12/11 02:00:47;;;;;;;14.57;8.00;;;;;;;;;;5055013;28;20670;-79
2021/12/11 02:03:16;;;;;;;12.10;8.43;;;;;;;;;;5055005;28;20255;-79
2021/12/11 02:05:42;;;;;;;12.13;8.40;;;;;;;;;;5038624;28;20548;-79
2021/12/11 02:08:10;;;;;;;13.63;8.60;;;;;;;;;;5054995;28;20738;-79
2021/12/11 02:10:41;;;;;;;12.30;8.90;;;;;;;;;;5055065;28;20259;-79
2021/12/11 02:13:09;;;;;;;14.07;8.67;;;;;;;;;;5054773;28;20185;-79
2021/12/11 02:15:40;;;;;;;14.30;8.70;;;;;;;;;;5054860;28;20178;-79
2021/12/11 02:18:11;;;;;;;14.63;8.80;;;;;;;;;;5039112;28;20174;-79
2021/12/11 02:20:41;;;;;;;11.73;8.37;;;;;;;;;;5054970;28;20204;-79
2021/12/11 02:23:07;;;;;;;13.53;8.77;;;;;;;;;;5072880;28;20169;-79
2021/12/11 02:25:37;;;;;;;11.83;8.27;;;;;;;;;;5038273;28;20208;-79
2021/12/11 02:28:06;;;;;;;12.70;7.93;;;;;;;;;;5054701;28;20229;-79
2021/12/11 02:30:48;;;;;;;14.13;8.47;;;;;;;;;;5072590;28;20218;-79
2021/12/11 02:33:20;;;;;;;14.67;8.97;;;;;;;;;;5054177;28;20200;-79
2021/12/11 02:35:50;;;;;;;14.80;8.97;;;;;;;;;;5073215;28;20169;-79
2021/12/11 02:38:23;;;;;;;14.87;9.23;;;;;;;;;;5040130;28;20189;-79
2021/12/11 02:40:52;;;;;;;15.60;9.47;;;;;;;;;;5076721;28;20169;-79
2021/12/11 02:43:27;;;;;;;13.27;9.03;;;;;;;;;;5058310;28;20218;-79
2021/12/11 02:45:57;;;;;;;14.33;9.43;;;;;;;;;;5058929;28;20182;-79
2021/12/11 02:48:25;;;;;;;12.23;8.67;;;;;;;;;;5058540;28;20197;-79
2021/12/11 02:50:58;;;;;;;13.33;8.70;;;;;;;;;;5058515;28;20165;-79
2021/12/11 02:53:32;;;;;;;16.67;8.97;;;;;;;;;;5058780;28;20218;-79
2021/12/11 02:56:03;;;;;;;12.23;8.67;;;;;;;;;;5058419;28;20173;-79
2021/12/11 02:58:32;;;;;;;11.77;8.10;;;;;;;;;;5058448;28;20177;-79
2021/12/11 03:00:58;;;;;;;15.63;9.63;;;;;;;;;;5041647;28;20174;-79
2021/12/11 03:03:29;;;;;;;12.40;8.40;;;;;;;;;;5058146;28;20193;-79
2021/12/11 03:06:05;;;;;;;12.77;8.83;;;;;;;;;;5058271;28;20166;-79
2021/12/11 03:08:32;;;;;;;16.23;9.67;;;;;;;;;;5058323;28;20202;-79
2021/12/11 03:11:00;;;;;;;14.67;9.97;;;;;;;;;;5058371;28;20207;-79
2021/12/11 03:13:29;;;;;;;14.83;9.43;;;;;;;;;;5058253;28;20201;-79
2021/12/11 03:16:08;;;;;;;14.70;9.10;;;;;;;;;;5059003;28;20169;-79
2021/12/11 03:18:34;;;;;;;15.40;9.63;;;;;;;;;;5057994;28;20627;-79
2021/12/11 03:21:00;;;;;;;14.57;9.03;;;;;;;;;;5057997;28;20187;-79
2021/12/11 03:23:26;;;;;;;13.50;8.67;;;;;;;;;;5058391;28;20190;-79
2021/12/11 03:25:53;;;;;;;14.27;8.70;;;;;;;;;;5058181;28;20207;-79
2021/12/11 03:28:20;;;;;;;14.13;9.33;;;;;;;;;;5057856;28;20279;-79
2021/12/11 03:30:56;;;;;;;12.83;9.20;;;;;;;;;;5057858;28;20207;-79
2021/12/11 03:33:23;;;;;;;13.37;9.00;;;;;;;;;;5058174;28;20207;-79
2021/12/11 03:35:49;;;;;;;13.20;9.13;;;;;;;;;;5057944;28;20173;-79
2021/12/11 03:38:16;;;;;;;13.40;9.10;;;;;;;;;;5076069;28;20240;-79
2021/12/11 03:40:42;;;;;;;14.20;9.23;;;;;;;;;;5057489;28;20173;-79
2021/12/11 03:43:10;;;;;;;12.70;8.93;;;;;;;;;;5041018;28;20180;-79
2021/12/11 03:45:38;;;;;;;14.83;9.30;;;;;;;;;;5041435;28;20251;-79
2021/12/11 03:48:06;;;;;;;14.37;9.60;;;;;;;;;;5041100;28;20216;-79
2021/12/11 03:50:33;;;;;;;15.47;9.50;;;;;;;;;;5039854;28;20173;-79
2021/12/11 03:52:59;;;;;;;14.23;9.17;;;;;;;;;;5057333;28;20173;-79
2021/12/11 03:55:27;;;;;;;14.90;9.37;;;;;;;;;;5057102;28;20196;-79
2021/12/11 03:57:58;;;;;;;15.30;9.03;;;;;;;;;;5075516;28;20165;-79
2021/12/11 04:00:25;;;;;;;14.30;8.80;;;;;;;;;;5057318;28;20553;-79
2021/12/11 04:02:53;;;;;;;15.40;9.53;;;;;;;;;;5040481;28;20290;-79
2021/12/11 04:05:21;;;;;;;14.10;9.17;;;;;;;;;;5057061;28;20204;-79
2021/12/11 04:07:50;;;;;;;15.37;8.93;;;;;;;;;;5040612;28;20239;-79
2021/12/11 04:10:17;;;;;;;13.93;8.50;;;;;;;;;;5057274;28;20176;-79
2021/12/11 04:12:43;;;;;;;15.73;8.83;;;;;;;;;;5040495;28;20184;-79
2021/12/11 04:15:10;;;;;;;15.23;8.70;;;;;;;;;;5040614;28;20248;-79
2021/12/11 04:17:37;;;;;;;13.30;8.27;;;;;;;;;;5057182;28;20178;-79
2021/12/11 04:20:06;;;;;;;12.87;8.10;;;;;;;;;;5056972;28;20268;-79
2021/12/11 04:22:32;;;;;;;12.03;7.93;;;;;;;;;;5056846;28;20176;-79
2021/12/11 04:24:58;;;;;;;12.93;8.13;;;;;;;;;;5074828;28;20193;-79
2021/12/11 04:27:25;;;;;;;13.33;8.73;;;;;;;;;;5040027;28;20181;-79
2021/12/11 04:29:51;;;;;;;14.37;8.50;;;;;;;;;;5056977;28;20651;-79
2021/12/11 04:32:18;;;;;;;12.50;7.93;;;;;;;;;;5040000;28;20172;-79
2021/12/11 04:34:44;;;;;;;14.53;9.20;;;;;;;;;;5056611;28;20219;-79
2021/12/11 04:37:15;;;;;;;14.03;8.87;;;;;;;;;;5039938;28;20181;-79
2021/12/11 04:39:44;;;;;;;12.13;8.03;;;;;;;;;;5040451;28;20212;-79
2021/12/11 04:42:43;;;;;;;12.30;8.27;;;;;;;;;;5039895;28;20222;-79
2021/12/11 04:45:00;;;;;;;13.73;9.00;;;;;;;;;;5072727;28;20220;-79
2021/12/11 04:47:39;;;;;;;13.73;8.77;;;;;;;;;;5073905;28;20168;-79
2021/12/11 04:50:11;;;;;;;14.80;8.97;;;;;;;;;;5056154;28;20180;-79
2021/12/11 04:58:56;;;;;;;14.97;8.53;;;;;;;;;;5059310;28;20164;-79
2021/12/11 05:11:08;;;;;;;13.23;8.60;;;;;;;;;;5057296;28;20172;-79
2021/12/11 05:13:34;;;;;;;12.60;8.33;;;;;;;;;;5056004;28;20197;-79
2021/12/11 05:16:02;;;;;;;13.43;7.93;;;;;;;;;;5073619;28;20161;-79
2021/12/11 05:18:29;;;;;;;13.20;8.37;;;;;;;;;;5039001;28;20184;-79
2021/12/11 05:20:57;;;;;;;14.13;8.73;;;;;;;;;;5038913;28;20241;-79
2021/12/11 05:23:23;;;;;;;14.67;9.07;;;;;;;;;;5055853;28;20242;-79
2021/12/11 05:25:50;;;;;;;15.03;8.77;;;;;;;;;;5055603;28;20271;-79
2021/12/11 05:28:16;;;;;;;13.63;8.63;;;;;;;;;;5055254;28;20204;-79
2021/12/11 05:30:46;;;;;;;14.77;8.83;;;;;;;;;;5038884;28;20186;-79
2021/12/11 05:33:13;;;;;;;12.50;8.37;;;;;;;;;;5038800;28;20264;-79
2021/12/11 05:35:41;;;;;;;13.67;8.80;;;;;;;;;;5055672;28;20173;-79
2021/12/11 05:38:08;;;;;;;14.83;9.13;;;;;;;;;;5055142;28;20212;-79
2021/12/11 05:40:36;;;;;;;13.93;8.47;;;;;;;;;;5038627;28;20185;-79
2021/12/11 05:43:03;;;;;;;14.30;8.53;;;;;;;;;;5038861;28;20379;-79
2021/12/11 05:45:29;;;;;;;16.07;8.70;;;;;;;;;;5038564;28;20639;-79
2021/12/11 05:47:55;;;;;;;12.30;8.13;;;;;;;;;;5038544;28;20205;-79
2021/12/11 05:50:25;;;;;;;13.37;8.60;;;;;;;;;;5055284;28;20619;-79
2021/12/11 05:52:51;;;;;;;13.20;8.50;;;;;;;;;;5072888;28;20225;-79
2021/12/11 05:55:19;;;;;;;15.77;9.07;;;;;;;;;;5038565;28;20208;-79
2021/12/11 05:57:52;;;;;;;13.33;8.67;;;;;;;;;;5055086;28;20180;-79
2021/12/11 06:00:19;;;;;;;14.07;9.40;;;;;;;;;;5054818;28;20177;-79
2021/12/11 06:02:45;;;;;;;14.63;8.47;;;;;;;;;;5054874;28;20180;-79
2021/12/11 06:05:11;;;;;;;12.77;8.47;;;;;;;;;;5054899;28;20199;-79
2021/12/11 06:07:42;;;;;;;12.97;8.67;;;;;;;;;;5054586;28;20172;-79
2021/12/11 06:10:10;;;;;;;15.67;9.03;;;;;;;;;;5039546;28;20177;-80
2021/12/11 06:12:37;;;;;;;13.87;8.53;;;;;;;;;;5073301;28;20169;-80
2021/12/11 06:15:04;;;;;;;15.57;9.67;;;;;;;;;;5055086;28;20209;-80
2021/12/11 06:17:31;;;;;;;14.90;9.07;;;;;;;;;;5055536;28;20570;-80
2021/12/11 06:19:58;;;;;;;13.97;9.37;;;;;;;;;;5055899;28;20204;-80
2021/12/11 06:22:28;;;;;;;14.20;8.97;;;;;;;;;;5073389;28;20296;-80
2021/12/11 06:24:55;;;;;;;16.43;9.53;;;;;;;;;;5038796;28;20197;-80
2021/12/11 06:27:23;;;;;;;13.20;9.17;;;;;;;;;;5055232;28;20231;-80
2021/12/11 06:29:49;;;;;;;14.60;9.43;;;;;;;;;;5038907;28;20273;-80
2021/12/11 06:32:15;;;;;;;15.03;9.20;;;;;;;;;;5055618;28;20173;-80
2021/12/11 06:34:42;;;;;;;14.07;9.13;;;;;;;;;;5056174;28;20188;-80
2021/12/11 06:37:09;;;;;;;14.30;9.20;;;;;;;;;;5055401;28;20192;-81
2021/12/11 06:39:36;;;;;;;14.00;8.90;;;;;;;;;;5055242;28;20271;-81
2021/12/11 06:42:06;;;;;;;15.37;9.50;;;;;;;;;;5056088;28;20176;-79
2021/12/11 06:44:33;;;;;;;14.23;8.87;;;;;;;;;;5082564;22;20625;-80
2021/12/11 06:47:01;;;;;;;14.73;9.13;;;;;;;;;;5053272;28;20192;-81
2021/12/11 06:49:28;;;;;;;11.50;6.63;;;;;;;;;;5036245;28;20236;-78
2021/12/11 06:51:54;;;;;;;13.67;9.60;;;;;;;;;;5068862;28;20177;-79
2021/12/11 06:54:21;;;;;;;11.90;8.03;;;;;;;;;;5066066;28;20194;-78
2021/12/11 06:56:48;;;;;;;11.73;7.43;;;;;;;;;;5048904;28;20179;-78
2021/12/11 06:59:14;;;;;;;10.47;7.43;;;;;;;;;;5047847;28;20183;-80
2021/12/11 07:01:40;;;;;;;12.17;8.37;;;;;;;;;;5049033;28;20184;-83
2021/12/11 07:04:07;;;;;;;11.13;7.83;;;;;;;;;;5048501;28;20247;-83
2021/12/11 07:06:34;;;;;;;12.00;8.03;;;;;;;;;;5048576;28;20185;-81
2021/12/11 07:09:02;;;;;;;11.17;7.67;;;;;;;;;;5047920;28;20204;-80
2021/12/11 07:11:29;;;;;;;10.10;7.67;;;;;;;;;;5048162;28;20187;-79
2021/12/11 07:13:55;;;;;;;13.53;8.33;;;;;;;;;;5064348;28;20197;-84
2021/12/11 07:16:21;;;;;;;13.03;8.53;;;;;;;;;;5033198;28;20169;-78
2021/12/11 07:18:47;;;;;;;13.43;8.50;;;;;;;;;;5047962;28;20397;-79
2021/12/11 07:21:13;;;;;;;12.50;8.10;;;;;;;;;;5047054;28;20184;-81
2021/12/11 07:23:45;;;;;;;12.17;8.43;;;;;;;;;;5047231;28;20196;-82
2021/12/11 07:26:17;;;;;;;12.93;8.23;;;;;;;;;;5049692;28;20249;-82
2021/12/11 07:28:51;;;;;;;13.67;7.87;;;;;;;;;;5051731;28;20588;-82
2021/12/11 07:31:28;;;;;;;12.80;8.97;;;;;;;;;;5050103;28;20718;-82
2021/12/11 07:33:55;;;;;;;13.00;8.77;;;;;;;;;;5050654;28;20688;-82
2021/12/11 07:36:22;;;;;;;12.63;7.83;;;;;;;;;;5066757;28;20183;-82
2021/12/11 07:38:48;;;;;;;10.57;7.83;;;;;;;;;;5051145;28;20191;-81
2021/12/11 07:41:15;;;;;;;12.57;7.97;;;;;;;;;;5050617;28;20532;-82
2021/12/11 07:43:42;;;;;;;12.87;7.90;;;;;;;;;;5050709;28;20182;-82
2021/12/11 07:46:10;;;;;;;13.90;8.63;;;;;;;;;;5051172;28;20302;-82
2021/12/11 07:48:36;;;;;;;12.53;8.40;;;;;;;;;;5050963;28;20238;-81
2021/12/11 07:51:04;;;;;;;13.13;8.47;;;;;;;;;;5050915;28;20186;-81
2021/12/11 07:53:30;;;;;;;11.87;7.80;;;;;;;;;;5067332;28;20281;-81
2021/12/11 07:55:56;;;;;;;13.37;8.07;;;;;;;;;;5067500;28;20186;-81
2021/12/11 07:58:23;;;;;;;12.17;8.27;;;;;;;;;;5050952;28;20179;-80
2021/12/11 08:00:50;;;;;;;16.03;8.73;;;;;;;;;;5050744;28;20178;-81
2021/12/11 08:03:17;;;;;;;14.50;8.40;;;;;;;;;;5051103;28;20179;-81
2021/12/11 08:05:44;;;;;;;13.13;8.50;;;;;;;;;;5067144;28;20232;-80
2021/12/11 08:08:11;;;;;;;15.30;9.27;;;;;;;;;;5067555;28;20252;-81
2021/12/11 08:10:37;;;;;;;13.87;9.37;;;;;;;;;;5050858;28;20178;-81
2021/12/11 08:13:04;;;;;;;15.07;9.63;;;;;;;;;;5067826;28;20232;-81
2021/12/11 08:15:30;;;;;;;14.63;10.23;;;;;;;;;;5036261;28;20194;-79
2021/12/11 08:17:56;;;;;;;30.90;17.23;;;;;;;;;;5053718;28;20208;-79
2021/12/11 08:20:24;;;;;;;41.60;20.03;;;;;;;;;;5070067;28;20208;-79
2021/12/11 08:22:52;;;;;;;37.07;18.57;;;;;;;;;;5070110;28;20264;-79
2021/12/11 08:25:18;;;;;;;51.63;26.47;;;;;;;;;;5054018;28;20312;-78
2021/12/11 08:27:44;;;;;;;52.53;26.27;;;;;;;;;;5039259;28;20174;-79
2021/12/11 08:30:11;;;;;;;42.57;22.70;;;;;;;;;;5072077;28;20185;-79
2021/12/11 08:32:38;;;;;;;29.60;17.73;;;;;;;;;;5071336;28;20270;-79
2021/12/11 08:35:05;;;;;;;21.23;11.80;;;;;;;;;;5070208;28;20681;-80
2021/12/11 08:37:31;;;;;;;14.07;10.40;;;;;;;;;;5068248;28;20600;-77
2021/12/11 08:39:58;;;;;;;14.73;8.63;;;;;;;;;;5066270;28;20186;-77
2021/12/11 08:42:25;;;;;;;11.33;8.33;;;;;;;;;;5065707;28;20174;-76
2021/12/11 08:44:58;;;;;;;13.13;8.30;;;;;;;;;;5049215;28;20578;-77
2021/12/11 08:47:25;;;;;;;11.03;6.43;;;;;;;;;;5065130;28;20186;-77
2021/12/11 08:49:52;;;;;;;10.40;5.60;;;;;;;;;;5033509;28;20209;-77
2021/12/11 08:52:21;;;;;;;10.80;5.67;;;;;;;;;;5048986;28;20479;-77
2021/12/11 08:54:47;;;;;;;12.53;8.77;;;;;;;;;;5050822;28;20294;-79
2021/12/11 08:57:15;;;;;;;12.27;9.13;;;;;;;;;;5050675;28;20181;-80
2021/12/11 08:59:43;;;;;;;12.03;9.30;;;;;;;;;;5049855;28;20190;-80
2021/12/11 09:02:19;;;;;;;13.53;9.63;;;;;;;;;;5066377;28;20221;-80
2021/12/11 09:04:48;;;;;;;13.53;9.50;;;;;;;;;;5050127;28;20196;-80
2021/12/11 09:07:20;;;;;;;14.07;9.70;;;;;;;;;;5066796;28;20595;-80
2021/12/11 09:09:52;;;;;;;11.60;9.27;;;;;;;;;;5050175;28;20211;-80
2021/12/11 09:12:26;;;;;;;18.03;15.83;;;;;;;;;;5050296;28;20173;-80
2021/12/11 09:14:52;;;;;;;14.57;9.73;;;;;;;;;;5031637;28;20199;-80
2021/12/11 09:17:27;;;;;;;14.87;9.67;;;;;;;;;;5034389;28;20225;-80
2021/12/11 09:19:53;;;;;;;16.23;9.60;;;;;;;;;;5049295;28;20179;-80
2021/12/11 09:22:22;;;;;;;14.17;9.73;;;;;;;;;;5049161;28;20178;-80
2021/12/11 09:24:51;;;;;;;11.93;9.00;;;;;;;;;;5049558;28;20202;-80
2021/12/11 09:27:20;;;;;;;13.60;8.87;;;;;;;;;;5065600;28;20644;-80
2021/12/11 09:29:51;;;;;;;12.93;8.57;;;;;;;;;;5065519;28;20695;-80
2021/12/11 09:32:20;;;;;;;13.53;8.50;;;;;;;;;;5034105;28;20224;-80
2021/12/11 09:35:02;;;;;;;12.83;8.50;;;;;;;;;;5033637;28;20186;-80
2021/12/11 09:37:29;;;;;;;13.43;9.27;;;;;;;;;;5049207;28;20181;-80
2021/12/11 09:40:06;;;;;;;13.43;9.13;;;;;;;;;;5049228;28;20224;-80
2021/12/11 09:42:32;;;;;;;14.23;8.57;;;;;;;;;;5049161;28;20272;-80
2021/12/11 09:45:06;;;;;;;13.27;9.00;;;;;;;;;;5049151;28;20209;-80
2021/12/11 09:47:38;;;;;;;10.97;8.43;;;;;;;;;;5048250;28;20594;-80
2021/12/11 09:50:16;;;;;;;11.90;8.40;;;;;;;;;;5048745;28;20558;-80
2021/12/11 09:52:45;;;;;;;13.27;8.67;;;;;;;;;;5048881;28;20182;-80
2021/12/11 09:55:20;;;;;;;12.73;7.70;;;;;;;;;;5048767;28;20196;-80
2021/12/11 09:57:48;;;;;;;13.13;8.33;;;;;;;;;;5065075;28;20177;-80
2021/12/11 10:00:18;;;;;;;11.00;8.03;;;;;;;;;;5033423;28;20177;-80
2021/12/11 10:02:44;;;;;;;12.17;7.47;;;;;;;;;;5048545;28;20174;-80
2021/12/11 10:05:30;;;;;;;11.73;7.73;;;;;;;;;;5066258;28;20203;-80
2021/12/11 10:10:52;;;;;;;12.13;7.17;;;;;;;;;;5033398;28;20180;-80
2021/12/11 10:13:18;;;;;;;10.63;6.53;;;;;;;;;;5048725;28;20181;-80
2021/12/11 10:15:45;;;;;;;11.87;7.23;;;;;;;;;;5065201;28;20245;-80
2021/12/11 10:18:13;;;;;;;11.90;7.10;;;;;;;;;;5048304;28;20189;-80
2021/12/11 10:20:45;;;;;;;9.47;6.50;;;;;;;;;;5064673;28;20211;-80
2021/12/11 10:23:13;;;;;;;10.83;6.83;;;;;;;;;;5048420;28;20185;-80
2021/12/11 10:25:41;;;;;;;10.50;7.07;;;;;;;;;;5048439;28;20200;-80
2021/12/11 10:28:08;;;;;;;9.77;6.43;;;;;;;;;;5065071;28;20741;-80
2021/12/11 10:30:36;;;;;;;10.20;6.27;;;;;;;;;;5064904;28;20184;-80
2021/12/11 10:33:04;;;;;;;11.00;7.03;;;;;;;;;;5033119;28;20651;-80
2021/12/11 10:35:32;;;;;;;8.93;6.80;;;;;;;;;;5048485;28;20304;-80
2021/12/11 10:37:58;;;;;;;10.20;6.40;;;;;;;;;;5048735;28;20193;-80
2021/12/11 10:40:27;;;;;;;10.77;6.90;;;;;;;;;;5033253;28;20652;-80
2021/12/11 10:42:57;;;;;;;11.70;6.20;;;;;;;;;;5033105;28;20204;-80
2021/12/11 10:45:25;;;;;;;10.77;6.43;;;;;;;;;;5048447;28;20682;-80
2021/12/11 10:47:55;;;;;;;9.07;6.33;;;;;;;;;;5064785;28;20186;-80
2021/12/11 10:50:21;;;;;;;8.37;5.90;;;;;;;;;;5064854;28;20228;-80
2021/12/11 10:52:48;;;;;;;7.90;5.33;;;;;;;;;;5048457;28;20582;-80
2021/12/11 10:55:17;;;;;;;9.67;5.73;;;;;;;;;;5064849;28;20198;-78
2021/12/11 10:57:43;;;;;;;8.17;5.20;;;;;;;;;;5065020;28;20181;-78
2021/12/11 11:00:17;;;;;;;8.30;5.63;;;;;;;;;;5036330;28;20251;-79
2021/12/11 11:02:43;;;;;;;10.53;5.53;;;;;;;;;;5051861;28;20207;-79
2021/12/11 11:05:17;;;;;;;10.50;6.00;;;;;;;;;;5052065;28;20243;-78
2021/12/11 11:07:45;;;;;;;6.33;4.83;;;;;;;;;;5052454;28;20180;-79
2021/12/11 11:10:22;;;;;;;16.27;8.80;;;;;;;;;;5069438;28;20172;-79
2021/12/11 11:12:50;;;;;;;12.23;6.43;;;;;;;;;;5036905;28;20162;-78
2021/12/11 11:15:20;;;;;;;11.00;6.93;;;;;;;;;;5069799;28;20205;-80
2021/12/11 11:17:47;;;;;;;10.73;8.37;;;;;;;;;;5068730;28;20185;-79
2021/12/11 11:20:14;;;;;;;11.87;6.67;;;;;;;;;;5069251;28;20177;-79
2021/12/11 11:22:42;;;;;;;10.47;7.63;;;;;;;;;;5053067;28;20179;-79
2021/12/11 11:25:08;;;;;;;13.33;9.90;;;;;;;;;;5052651;28;20691;-79
2021/12/11 11:27:35;;;;;;;10.23;6.03;;;;;;;;;;5052426;28;20181;-79
2021/12/11 11:30:02;;;;;;;8.90;5.93;;;;;;;;;;5052195;28;20209;-79
2021/12/11 11:32:32;;;;;;;12.20;8.07;;;;;;;;;;5052515;28;20209;-79
2021/12/11 11:35:02;;;;;;;13.83;7.30;;;;;;;;;;5052846;28;20247;-78
2021/12/11 11:37:28;;;;;;;24.13;15.57;;;;;;;;;;5052572;28;20216;-78
2021/12/11 11:39:54;;;;;;;19.93;14.00;;;;;;;;;;5052177;28;20196;-78
2021/12/11 11:42:21;;;;;;;14.70;10.23;;;;;;;;;;5052095;28;20181;-78
2021/12/11 11:44:48;;;;;;;9.27;6.77;;;;;;;;;;5068799;28;20210;-79
2021/12/11 11:47:16;;;;;;;8.13;5.67;;;;;;;;;;5051809;28;20626;-79
2021/12/11 11:49:42;;;;;;;10.27;6.23;;;;;;;;;;5068505;28;20202;-79
2021/12/11 11:52:10;;;;;;;11.53;7.53;;;;;;;;;;5050872;28;20229;-78
2021/12/11 11:54:38;;;;;;;13.30;8.60;;;;;;;;;;5068161;28;20202;-80
2021/12/11 11:57:10;;;;;;;9.53;6.53;;;;;;;;;;5067604;28;20186;-80
2021/12/11 11:59:36;;;;;;;12.73;8.40;;;;;;;;;;5053169;28;20194;-79
2021/12/11 12:02:10;;;;;;;13.33;9.03;;;;;;;;;;5030602;28;20267;-80
2021/12/11 12:04:37;;;;;;;9.67;5.97;;;;;;;;;;5015667;28;20194;-79
2021/12/11 12:07:05;;;;;;;13.87;8.37;;;;;;;;;;5014556;28;20184;-80
2021/12/11 12:09:32;;;;;;;14.33;7.73;;;;;;;;;;5014800;28;20235;-80
2021/12/11 12:11:59;;;;;;;8.77;5.93;;;;;;;;;;5013773;28;20680;-79
2021/12/11 12:14:30;;;;;;;9.37;6.10;;;;;;;;;;5014452;28;20193;-80
2021/12/11 12:16:56;;;;;;;12.63;6.03;;;;;;;;;;5031343;28;20173;-80
2021/12/11 12:19:23;;;;;;;11.13;6.30;;;;;;;;;;5031922;28;20231;-79
2021/12/11 12:21:51;;;;;;;10.47;7.50;;;;;;;;;;5014664;28;20267;-80
2021/12/11 12:24:19;;;;;;;11.97;7.70;;;;;;;;;;5015348;28;20277;-79
2021/12/11 12:26:45;;;;;;;12.77;8.63;;;;;;;;;;5032013;28;20633;-79
2021/12/11 12:29:13;;;;;;;14.13;9.53;;;;;;;;;;5014407;28;20215;-80
2021/12/11 12:31:45;;;;;;;13.90;8.73;;;;;;;;;;5031047;28;20186;-80
2021/12/11 12:34:13;;;;;;;12.20;7.90;;;;;;;;;;5030455;28;20295;-80
2021/12/11 12:36:39;;;;;;;12.83;8.53;;;;;;;;;;5013818;28;20233;-79
2021/12/11 12:39:06;;;;;;;13.37;8.63;;;;;;;;;;5030337;28;20185;-80
2021/12/11 12:41:35;;;;;;;16.57;9.13;;;;;;;;;;5013890;28;20181;-82
2021/12/11 12:46:36;;;;;;;15.87;9.50;;;;;;;;;;5074035;28;20188;-80
2021/12/11 12:49:04;;;;;;;15.03;9.27;;;;;;;;;;5055817;28;20220;-80
2021/12/11 12:51:31;;;;;;;14.67;9.37;;;;;;;;;;5034543;28;20208;-79
2021/12/11 12:53:58;;;;;;;12.13;8.70;;;;;;;;;;5056345;28;20177;-79
2021/12/11 12:56:27;;;;;;;13.87;8.03;;;;;;;;;;5060458;28;20178;-79
2021/12/11 12:58:59;;;;;;;15.53;9.50;;;;;;;;;;5060146;28;20216;-80
2021/12/11 13:01:29;;;;;;;18.63;10.40;;;;;;;;;;5076341;28;20265;-79
2021/12/11 13:03:55;;;;;;;16.67;10.80;;;;;;;;;;5076570;28;20179;-80
2021/12/11 13:06:23;;;;;;;20.03;12.17;;;;;;;;;;5059879;28;20221;-79
2021/12/11 13:08:52;;;;;;;21.47;13.57;;;;;;;;;;5075967;28;20212;-81
2021/12/11 13:11:21;;;;;;;21.33;12.00;;;;;;;;;;5059928;28;20179;-78
2021/12/11 13:13:48;;;;;;;19.07;11.53;;;;;;;;;;5059399;28;20183;-80
2021/12/11 13:16:22;;;;;;;19.17;11.50;;;;;;;;;;5075498;28;20183;-79
2021/12/11 13:18:51;;;;;;;24.80;13.03;;;;;;;;;;5075917;28;20210;-80
2021/12/11 13:21:22;;;;;;;21.53;11.20;;;;;;;;;;5075754;28;20180;-82
2021/12/11 13:23:50;;;;;;;22.37;11.47;;;;;;;;;;5096094;28;20514;-79
2021/12/11 13:26:18;;;;;;;18.87;11.30;;;;;;;;;;5060374;28;20251;-81
2021/12/11 13:28:48;;;;;;;17.77;11.43;;;;;;;;;;5058930;28;20317;-80
2021/12/11 13:31:18;;;;;;;17.80;11.13;;;;;;;;;;5059264;28;20181;-80
2021/12/11 13:33:44;;;;;;;20.90;12.13;;;;;;;;;;5076510;28;20247;-79
2021/12/11 13:36:12;;;;;;;23.83;12.33;;;;;;;;;;5076076;28;20622;-79
2021/12/11 13:38:39;;;;;;;21.27;11.70;;;;;;;;;;5059138;28;20179;-80
2021/12/11 13:41:09;;;;;;;22.03;12.93;;;;;;;;;;5059640;28;20658;-82
2021/12/11 13:43:36;;;;;;;21.07;12.33;;;;;;;;;;5075548;28;20179;-81
2021/12/11 13:46:04;;;;;;;21.43;11.57;;;;;;;;;;5058858;28;20742;-79
2021/12/11 13:48:30;;;;;;;17.67;10.70;;;;;;;;;;5076213;28;20266;-80
2021/12/11 13:51:01;;;;;;;18.90;11.23;;;;;;;;;;5075581;28;20201;-81
2021/12/11 13:53:28;;;;;;;20.57;11.57;;;;;;;;;;5075594;28;20176;-83
2021/12/11 13:55:55;;;;;;;20.13;11.77;;;;;;;;;;5075959;28;20201;-80
2021/12/11 13:58:21;;;;;;;19.20;11.43;;;;;;;;;;5075488;28;20181;-81
2021/12/11 14:00:49;;;;;;;19.83;11.53;;;;;;;;;;5074669;28;20628;-82
2021/12/11 14:03:16;;;;;;;20.43;12.20;;;;;;;;;;5059018;28;20182;-79
2021/12/11 14:05:43;;;;;;;19.33;11.53;;;;;;;;;;5058547;28;20300;-78
2021/12/11 14:08:13;;;;;;;21.70;11.43;;;;;;;;;;5059450;28;20579;-78
2021/12/11 14:10:39;;;;;;;20.77;11.40;;;;;;;;;;5093335;28;20620;-79
2021/12/11 14:13:06;;;;;;;19.83;11.20;;;;;;;;;;5059837;28;20649;-77
2021/12/11 14:15:32;;;;;;;21.37;11.03;;;;;;;;;;5094007;28;20217;-77
2021/12/11 14:17:58;;;;;;;21.50;12.40;;;;;;;;;;5075439;28;20176;-79
2021/12/11 14:20:32;;;;;;;22.33;12.30;;;;;;;;;;5075155;28;20180;-79
2021/12/11 14:22:59;;;;;;;20.30;11.90;;;;;;;;;;5075091;28;20720;-78
2021/12/11 14:25:26;;;;;;;24.70;12.33;;;;;;;;;;5076110;28;20658;-77
2021/12/11 14:27:53;;;;;;;24.63;13.47;;;;;;;;;;5093588;28;20192;-80
2021/12/11 14:30:21;;;;;;;33.57;19.40;;;;;;;;;;5075407;28;20174;-77
2021/12/11 14:32:53;;;;;;;29.37;18.40;;;;;;;;;;5058662;28;20177;-79
2021/12/11 14:35:21;;;;;;;26.00;15.07;;;;;;;;;;5081693;28;20224;-79
2021/12/11 14:37:47;;;;;;;23.17;12.50;;;;;;;;;;5081913;28;20541;-79
2021/12/11 14:40:15;;;;;;;21.60;12.00;;;;;;;;;;5081294;28;20277;-80
2021/12/11 14:42:41;;;;;;;19.70;11.10;;;;;;;;;;5081572;28;20177;-81
2021/12/11 14:45:13;;;;;;;18.73;10.90;;;;;;;;;;5081514;28;20639;-81
2021/12/11 14:47:39;;;;;;;22.67;11.47;;;;;;;;;;5081661;28;20177;-79
2021/12/11 14:50:08;;;;;;;21.00;11.03;;;;;;;;;;5065047;28;20216;-80
2021/12/11 14:52:35;;;;;;;19.13;11.67;;;;;;;;;;5081935;28;20174;-79
2021/12/11 14:55:04;;;;;;;22.77;12.33;;;;;;;;;;5082363;28;20663;-78
2021/12/11 14:57:31;;;;;;;21.87;12.37;;;;;;;;;;5082147;28;20194;-79